FAD471 OMDB-OIIE
Flight info
| Callsign | FAD471 |
|---|---|
| Flight time | N/A |
| Altitude | 35000 |
| Route | DAVMO M318 GABKO M317 RADEB M318 ASMUK/N0436F340 W32 ROVAD/N0395F280 G208 RADAL |
| Aircraft | A20N/M-SDE2E3FGHIRWXY/LB1 |
Departure
| Time | 2026-04-26 07:52 |
|---|---|
| Airport | Dubai International Airport (OMDB) |
Arrival
| Time | N/A |
|---|---|
| Airport | Imam Khomeini International Airport (OIIE) |
| Time | Latitude | Longitude | Altitude | Speed | Heading |
|---|---|---|---|---|---|
| 2026-04-26 07:26 | 25.24515 | 55.37035 | 32 ft | 0 kts | 211° |
| 2026-04-26 07:38 | 25.24521 | 55.37039 | 32 ft | 3 kts | 210° |
| 2026-04-26 07:38 | 25.24539 | 55.37050 | 32 ft | 3 kts | 207° |
| 2026-04-26 07:39 | 25.24557 | 55.37060 | 32 ft | 3 kts | 204° |
| 2026-04-26 07:39 | 25.24576 | 55.37068 | 32 ft | 3 kts | 197° |
| 2026-04-26 07:39 | 25.24595 | 55.37073 | 32 ft | 3 kts | 186° |
| 2026-04-26 07:39 | 25.24613 | 55.37073 | 31 ft | 3 kts | 168° |
| 2026-04-26 07:40 | 25.24629 | 55.37066 | 31 ft | 2 kts | 144° |
| 2026-04-26 07:40 | 25.24640 | 55.37055 | 31 ft | 2 kts | 130° |
| 2026-04-26 07:40 | 25.24646 | 55.37046 | 31 ft | 1 kts | 125° |
| 2026-04-26 07:40 | 25.24651 | 55.37039 | 30 ft | 1 kts | 122° |
| 2026-04-26 07:41 | 25.24655 | 55.37031 | 30 ft | 1 kts | 121° |
| 2026-04-26 07:41 | 25.24656 | 55.37030 | 30 ft | 0 kts | 121° |
| 2026-04-26 07:43 | 25.24651 | 55.37039 | 30 ft | 4 kts | 121° |
| 2026-04-26 07:44 | 25.24641 | 55.37058 | 31 ft | 2 kts | 121° |
| 2026-04-26 07:44 | 25.24626 | 55.37084 | 31 ft | 6 kts | 121° |
| 2026-04-26 07:44 | 25.24588 | 55.37151 | 33 ft | 15 kts | 121° |
| 2026-04-26 07:44 | 25.24538 | 55.37242 | 34 ft | 13 kts | 122° |
| 2026-04-26 07:45 | 25.24494 | 55.37320 | 37 ft | 11 kts | 122° |
| 2026-04-26 07:45 | 25.24459 | 55.37382 | 38 ft | 9 kts | 122° |
| 2026-04-26 07:45 | 25.24431 | 55.37431 | 39 ft | 6 kts | 122° |
| 2026-04-26 07:45 | 25.24412 | 55.37468 | 39 ft | 5 kts | 119° |
| 2026-04-26 07:46 | 25.24399 | 55.37493 | 39 ft | 3 kts | 121° |
| 2026-04-26 07:46 | 25.24369 | 55.37547 | 41 ft | 14 kts | 121° |
| 2026-04-26 07:46 | 25.24312 | 55.37648 | 42 ft | 15 kts | 122° |
| 2026-04-26 07:46 | 25.24262 | 55.37739 | 45 ft | 13 kts | 121° |
| 2026-04-26 07:47 | 25.24218 | 55.37818 | 47 ft | 11 kts | 121° |
| 2026-04-26 07:47 | 25.24177 | 55.37892 | 48 ft | 13 kts | 120° |
| 2026-04-26 07:47 | 25.24126 | 55.37982 | 48 ft | 13 kts | 121° |
| 2026-04-26 07:47 | 25.24109 | 55.38066 | 53 ft | 11 kts | 58° |
| 2026-04-26 07:48 | 25.24135 | 55.38155 | 55 ft | 13 kts | 120° |
| 2026-04-26 07:48 | 25.24090 | 55.38236 | 57 ft | 14 kts | 122° |
| 2026-04-26 07:48 | 25.24018 | 55.38365 | 56 ft | 25 kts | 121° |
| 2026-04-26 07:48 | 25.23911 | 55.38558 | 60 ft | 33 kts | 122° |
| 2026-04-26 07:49 | 25.23792 | 55.38770 | 60 ft | 32 kts | 121° |
| 2026-04-26 07:49 | 25.23680 | 55.38974 | 67 ft | 31 kts | 121° |
| 2026-04-26 07:49 | 25.23569 | 55.39172 | 70 ft | 30 kts | 122° |
| 2026-04-26 07:50 | 25.23425 | 55.39513 | 67 ft | 16 kts | 42° |
| 2026-04-26 07:50 | 25.23444 | 55.39526 | 65 ft | 0 kts | 29° |
| 2026-04-26 07:51 | 25.23476 | 55.39548 | 68 ft | 8 kts | 32° |
| 2026-04-26 07:51 | 25.23523 | 55.39573 | 71 ft | 7 kts | 10° |
| 2026-04-26 07:51 | 25.23578 | 55.39523 | 68 ft | 13 kts | 300° |
| 2026-04-26 07:51 | 25.23634 | 55.39421 | 63 ft | 28 kts | 301° |
| 2026-04-26 07:52 | 25.23846 | 55.39039 | 64 ft | 89 kts | 301° |
| 2026-04-26 07:52 | 25.24277 | 55.38261 | 55 ft | 143 kts | 301° |
| 2026-04-26 07:52 | 25.24843 | 55.37242 | 296 ft | 159 kts | 300° |
| 2026-04-26 07:52 | 25.25401 | 55.36219 | 872 ft | 155 kts | 303° |
| 2026-04-26 07:53 | 25.26009 | 55.35225 | 1359 ft | 159 kts | 307° |
| 2026-04-26 07:53 | 25.26659 | 55.34186 | 1809 ft | 175 kts | 306° |
| 2026-04-26 07:53 | 25.27421 | 55.32969 | 2091 ft | 207 kts | 306° |